createdAt,value
2022-12-08T21:38:10.057Z,56.25
2022-12-08T21:40:38.386Z,48.45
2022-12-08T21:43:06.398Z,46.33
2022-12-08T21:45:35.320Z,47.10
2022-12-08T21:48:11.031Z,45.00
2022-12-08T21:50:39.698Z,44.30
2022-12-08T21:53:09.090Z,47.53
2022-12-08T21:55:37.220Z,47.00
2022-12-08T21:58:05.629Z,45.88
2022-12-08T22:00:33.833Z,46.75
2022-12-08T22:03:02.106Z,48.47
2022-12-08T22:05:30.250Z,44.53
2022-12-08T22:07:58.526Z,42.08
2022-12-08T22:10:28.039Z,44.30
2022-12-08T22:12:56.016Z,42.53
2022-12-08T22:15:24.054Z,39.83
2022-12-08T22:17:52.302Z,40.05
2022-12-08T22:20:20.698Z,41.78
2022-12-08T22:22:49.197Z,38.15
2022-12-08T22:25:17.319Z,37.83
2022-12-08T22:27:47.951Z,37.03
2022-12-08T22:30:16.303Z,39.38
2022-12-08T22:32:44.478Z,37.53
2022-12-08T22:35:12.713Z,36.50
2022-12-08T22:37:40.856Z,33.38
2022-12-08T22:40:10.071Z,32.30
2022-12-08T22:42:38.306Z,32.08
2022-12-08T22:45:09.349Z,28.70
2022-12-08T22:47:37.392Z,32.10
2022-12-08T22:50:07.103Z,32.88
2022-12-08T22:52:35.651Z,32.33
2022-12-08T22:55:03.687Z,30.95
2022-12-08T22:57:31.893Z,32.22
2022-12-08T22:59:59.855Z,31.53
2022-12-08T23:02:29.328Z,30.05
2022-12-08T23:04:57.936Z,33.97
2022-12-08T23:07:26.037Z,31.80
2022-12-08T23:09:54.127Z,32.42
2022-12-08T23:12:22.411Z,32.55
2022-12-08T23:14:50.508Z,34.23
2022-12-08T23:17:18.847Z,33.10
2022-12-08T23:19:48.245Z,33.83
2022-12-08T23:22:16.388Z,31.73
2022-12-08T23:24:44.627Z,37.10
2022-12-08T23:27:12.682Z,34.10
2022-12-08T23:29:40.809Z,38.08
2022-12-08T23:32:09.032Z,44.00
2022-12-08T23:34:37.049Z,40.83
2022-12-08T23:37:06.407Z,38.58
2022-12-08T23:39:34.775Z,38.30
2022-12-08T23:42:02.820Z,32.78
2022-12-08T23:44:31.481Z,29.67
2022-12-08T23:46:59.563Z,26.90
2022-12-08T23:49:28.073Z,27.40
2022-12-08T23:51:56.226Z,28.00
2022-12-08T23:54:25.799Z,29.23
2022-12-08T23:56:54.039Z,28.42
2022-12-08T23:59:22.228Z,29.03
